sensor_id;sensor_type;location;lat;lon;timestamp;P1;durP1;ratioP1;P2;durP2;ratioP2
65825;SDS011;52586;-43.152;172.732;2023-03-01T00:01:10;1.58;;;1.13;;
65825;SDS011;52586;-43.152;172.732;2023-03-01T00:03:42;2.47;;;1.20;;
65825;SDS011;52586;-43.152;172.732;2023-03-01T00:06:13;2.55;;;1.45;;
65825;SDS011;52586;-43.152;172.732;2023-03-01T00:08:44;1.50;;;1.40;;
65825;SDS011;52586;-43.152;172.732;2023-03-01T00:11:16;1.80;;;1.20;;
65825;SDS011;52586;-43.152;172.732;2023-03-01T00:13:49;3.08;;;1.35;;
65825;SDS011;52586;-43.152;172.732;2023-03-01T00:16:22;1.83;;;1.40;;
65825;SDS011;52586;-43.152;172.732;2023-03-01T00:18:54;1.30;;;1.10;;
65825;SDS011;52586;-43.152;172.732;2023-03-01T00:21:25;1.75;;;1.42;;
65825;SDS011;52586;-43.152;172.732;2023-03-01T00:23:56;1.77;;;1.38;;
65825;SDS011;52586;-43.152;172.732;2023-03-01T00:26:27;1.75;;;1.20;;
65825;SDS011;52586;-43.152;172.732;2023-03-01T00:28:58;1.27;;;1.00;;
65825;SDS011;52586;-43.152;172.732;2023-03-01T00:31:31;3.25;;;1.35;;
65825;SDS011;52586;-43.152;172.732;2023-03-01T00:34:03;2.53;;;1.40;;
65825;SDS011;52586;-43.152;172.732;2023-03-01T00:36:34;1.73;;;1.30;;
65825;SDS011;52586;-43.152;172.732;2023-03-01T00:39:07;1.83;;;1.45;;
65825;SDS011;52586;-43.152;172.732;2023-03-01T00:41:39;3.20;;;1.30;;
65825;SDS011;52586;-43.152;172.732;2023-03-01T00:44:10;2.85;;;1.40;;
65825;SDS011;52586;-43.152;172.732;2023-03-01T00:46:43;2.58;;;1.23;;
65825;SDS011;52586;-43.152;172.732;2023-03-01T00:49:14;2.20;;;1.20;;
65825;SDS011;52586;-43.152;172.732;2023-03-01T00:51:44;1.73;;;1.50;;
65825;SDS011;52586;-43.152;172.732;2023-03-01T00:54:16;2.88;;;1.50;;
65825;SDS011;52586;-43.152;172.732;2023-03-01T00:56:47;2.83;;;1.63;;
65825;SDS011;52586;-43.152;172.732;2023-03-01T00:59:18;2.45;;;1.30;;
65825;SDS011;52586;-43.152;172.732;2023-03-01T01:01:57;1.48;;;1.00;;
65825;SDS011;52586;-43.152;172.732;2023-03-01T01:04:28;3.25;;;1.50;;
65825;SDS011;52586;-43.152;172.732;2023-03-01T01:06:58;4.43;;;1.70;;
65825;SDS011;52586;-43.152;172.732;2023-03-01T01:09:29;2.45;;;1.60;;
65825;SDS011;52586;-43.152;172.732;2023-03-01T01:12:00;1.50;;;1.35;;
65825;SDS011;52586;-43.152;172.732;2023-03-01T01:14:31;2.58;;;1.48;;
65825;SDS011;52586;-43.152;172.732;2023-03-01T01:17:04;3.33;;;1.60;;
65825;SDS011;52586;-43.152;172.732;2023-03-01T01:19:35;2.60;;;1.48;;
65825;SDS011;52586;-43.152;172.732;2023-03-01T01:22:05;1.73;;;1.30;;
65825;SDS011;52586;-43.152;172.732;2023-03-01T01:24:36;2.30;;;1.27;;
65825;SDS011;52586;-43.152;172.732;2023-03-01T01:27:07;2.22;;;1.17;;
65825;SDS011;52586;-43.152;172.732;2023-03-01T01:29:37;2.10;;;1.50;;
65825;SDS011;52586;-43.152;172.732;2023-03-01T01:32:10;2.88;;;1.65;;
65825;SDS011;52586;-43.152;172.732;2023-03-01T01:34:41;1.88;;;1.70;;
65825;SDS011;52586;-43.152;172.732;2023-03-01T01:37:12;2.42;;;1.65;;
65825;SDS011;52586;-43.152;172.732;2023-03-01T01:39:43;3.17;;;1.52;;
65825;SDS011;52586;-43.152;172.732;2023-03-01T01:42:15;2.67;;;1.30;;
65825;SDS011;52586;-43.152;172.732;2023-03-01T01:44:46;2.95;;;1.50;;
65825;SDS011;52586;-43.152;172.732;2023-03-01T01:47:39;1.48;;;1.38;;
65825;SDS011;52586;-43.152;172.732;2023-03-01T01:50:10;1.98;;;1.45;;
65825;SDS011;52586;-43.152;172.732;2023-03-01T01:52:47;2.63;;;1.40;;
65825;SDS011;52586;-43.152;172.732;2023-03-01T01:55:20;3.90;;;1.73;;
65825;SDS011;52586;-43.152;172.732;2023-03-01T01:57:53;2.72;;;1.75;;
65825;SDS011;52586;-43.152;172.732;2023-03-01T02:00:27;2.58;;;1.73;;
65825;SDS011;52586;-43.152;172.732;2023-03-01T02:03:02;2.03;;;1.50;;
65825;SDS011;52586;-43.152;172.732;2023-03-01T02:05:38;1.88;;;1.38;;
65825;SDS011;52586;-43.152;172.732;2023-03-01T02:08:12;2.30;;;1.60;;
65825;SDS011;52586;-43.152;172.732;2023-03-01T02:10:45;3.45;;;1.60;;
65825;SDS011;52586;-43.152;172.732;2023-03-01T02:13:18;2.03;;;1.50;;
65825;SDS011;52586;-43.152;172.732;2023-03-01T02:15:49;1.80;;;1.70;;
65825;SDS011;52586;-43.152;172.732;2023-03-01T02:18:22;2.42;;;1.55;;
65825;SDS011;52586;-43.152;172.732;2023-03-01T02:20:58;2.35;;;1.40;;
65825;SDS011;52586;-43.152;172.732;2023-03-01T02:23:41;2.08;;;1.55;;
65825;SDS011;52586;-43.152;172.732;2023-03-01T02:26:14;2.05;;;1.27;;
65825;SDS011;52586;-43.152;172.732;2023-03-01T02:28:54;2.03;;;1.48;;
65825;SDS011;52586;-43.152;172.732;2023-03-01T02:31:25;1.67;;;1.35;;
65825;SDS011;52586;-43.152;172.732;2023-03-01T02:34:12;3.30;;;1.70;;
65825;SDS011;52586;-43.152;172.732;2023-03-01T02:36:44;2.97;;;1.40;;
65825;SDS011;52586;-43.152;172.732;2023-03-01T02:39:17;2.05;;;1.48;;
65825;SDS011;52586;-43.152;172.732;2023-03-01T02:41:51;2.35;;;1.35;;
65825;SDS011;52586;-43.152;172.732;2023-03-01T02:44:25;2.20;;;1.58;;
65825;SDS011;52586;-43.152;172.732;2023-03-01T02:46:56;1.75;;;1.30;;
65825;SDS011;52586;-43.152;172.732;2023-03-01T02:49:30;2.03;;;1.55;;
65825;SDS011;52586;-43.152;172.732;2023-03-01T02:52:07;1.85;;;1.40;;
65825;SDS011;52586;-43.152;172.732;2023-03-01T02:55:00;1.77;;;1.50;;
65825;SDS011;52586;-43.152;172.732;2023-03-01T02:57:32;2.30;;;1.60;;
65825;SDS011;52586;-43.152;172.732;2023-03-01T03:00:08;2.55;;;1.20;;
65825;SDS011;52586;-43.152;172.732;2023-03-01T03:02:45;2.95;;;1.40;;
65825;SDS011;52586;-43.152;172.732;2023-03-01T03:05:17;1.42;;;1.15;;
65825;SDS011;52586;-43.152;172.732;2023-03-01T03:07:49;1.27;;;1.15;;
65825;SDS011;52586;-43.152;172.732;2023-03-01T03:10:23;1.83;;;1.55;;
65825;SDS011;52586;-43.152;172.732;2023-03-01T03:12:56;1.73;;;1.10;;
65825;SDS011;52586;-43.152;172.732;2023-03-01T03:15:32;1.95;;;1.45;;
65825;SDS011;52586;-43.152;172.732;2023-03-01T03:18:05;1.30;;;1.20;;
65825;SDS011;52586;-43.152;172.732;2023-03-01T03:20:38;1.92;;;1.40;;
65825;SDS011;52586;-43.152;172.732;2023-03-01T03:23:11;2.42;;;1.27;;
65825;SDS011;52586;-43.152;172.732;2023-03-01T03:25:42;1.35;;;1.25;;
65825;SDS011;52586;-43.152;172.732;2023-03-01T03:28:12;2.55;;;1.30;;
65825;SDS011;52586;-43.152;172.732;2023-03-01T03:30:45;1.45;;;1.05;;
65825;SDS011;52586;-43.152;172.732;2023-03-01T03:33:16;1.33;;;1.13;;
65825;SDS011;52586;-43.152;172.732;2023-03-01T03:35:47;2.40;;;1.40;;
65825;SDS011;52586;-43.152;172.732;2023-03-01T03:38:18;1.52;;;1.38;;
65825;SDS011;52586;-43.152;172.732;2023-03-01T03:40:50;1.85;;;1.40;;
65825;SDS011;52586;-43.152;172.732;2023-03-01T03:43:29;3.35;;;1.50;;
65825;SDS011;52586;-43.152;172.732;2023-03-01T03:46:02;1.20;;;1.10;;
65825;SDS011;52586;-43.152;172.732;2023-03-01T03:48:33;1.52;;;1.25;;
65825;SDS011;52586;-43.152;172.732;2023-03-01T03:51:05;1.52;;;1.00;;
65825;SDS011;52586;-43.152;172.732;2023-03-01T03:53:38;1.48;;;1.20;;
65825;SDS011;52586;-43.152;172.732;2023-03-01T03:56:09;1.20;;;1.08;;
65825;SDS011;52586;-43.152;172.732;2023-03-01T03:58:40;1.55;;;1.10;;
65825;SDS011;52586;-43.152;172.732;2023-03-01T04:01:12;1.63;;;1.05;;
65825;SDS011;52586;-43.152;172.732;2023-03-01T04:03:43;1.35;;;1.00;;
65825;SDS011;52586;-43.152;172.732;2023-03-01T04:06:14;1.63;;;1.00;;
65825;SDS011;52586;-43.152;172.732;2023-03-01T04:08:45;1.10;;;1.00;;
65825;SDS011;52586;-43.152;172.732;2023-03-01T04:11:25;1.83;;;1.15;;
65825;SDS011;52586;-43.152;172.732;2023-03-01T04:13:56;1.13;;;1.02;;
65825;SDS011;52586;-43.152;172.732;2023-03-01T04:16:29;1.60;;;1.13;;
65825;SDS011;52586;-43.152;172.732;2023-03-01T04:19:00;0.85;;;0.73;;
65825;SDS011;52586;-43.152;172.732;2023-03-01T04:21:32;1.27;;;1.05;;
65825;SDS011;52586;-43.152;172.732;2023-03-01T04:24:03;1.35;;;1.10;;
65825;SDS011;52586;-43.152;172.732;2023-03-01T04:26:35;1.80;;;0.90;;
65825;SDS011;52586;-43.152;172.732;2023-03-01T04:29:05;1.98;;;0.90;;
65825;SDS011;52586;-43.152;172.732;2023-03-01T04:31:38;1.10;;;1.00;;
65825;SDS011;52586;-43.152;172.732;2023-03-01T04:34:08;0.93;;;0.90;;
65825;SDS011;52586;-43.152;172.732;2023-03-01T04:36:40;1.38;;;1.20;;
65825;SDS011;52586;-43.152;172.732;2023-03-01T04:39:10;1.17;;;0.90;;
65825;SDS011;52586;-43.152;172.732;2023-03-01T04:41:41;2.33;;;0.90;;
65825;SDS011;52586;-43.152;172.732;2023-03-01T04:44:12;2.78;;;1.20;;
65825;SDS011;52586;-43.152;172.732;2023-03-01T04:46:44;2.08;;;0.90;;
65825;SDS011;52586;-43.152;172.732;2023-03-01T04:49:17;4.43;;;1.00;;
65825;SDS011;52586;-43.152;172.732;2023-03-01T04:51:48;0.80;;;0.60;;
65825;SDS011;52586;-43.152;172.732;2023-03-01T04:54:19;2.42;;;0.75;;
65825;SDS011;52586;-43.152;172.732;2023-03-01T04:56:49;1.80;;;0.55;;
65825;SDS011;52586;-43.152;172.732;2023-03-01T04:59:20;2.70;;;0.60;;
65825;SDS011;52586;-43.152;172.732;2023-03-01T05:01:53;0.57;;;0.57;;
65825;SDS011;52586;-43.152;172.732;2023-03-01T05:04:26;0.55;;;0.50;;
65825;SDS011;52586;-43.152;172.732;2023-03-01T05:06:57;1.13;;;0.55;;
65825;SDS011;52586;-43.152;172.732;2023-03-01T05:09:27;1.17;;;0.52;;
65825;SDS011;52586;-43.152;172.732;2023-03-01T05:11:58;1.52;;;0.63;;
65825;SDS011;52586;-43.152;172.732;2023-03-01T05:14:29;2.95;;;0.77;;
65825;SDS011;52586;-43.152;172.732;2023-03-01T05:17:01;1.63;;;0.60;;
65825;SDS011;52586;-43.152;172.732;2023-03-01T05:19:32;19.85;;;7.25;;
65825;SDS011;52586;-43.152;172.732;2023-03-01T05:22:03;17.63;;;7.28;;
65825;SDS011;52586;-43.152;172.732;2023-03-01T05:24:34;10.13;;;3.83;;
65825;SDS011;52586;-43.152;172.732;2023-03-01T05:27:05;6.63;;;2.40;;
65825;SDS011;52586;-43.152;172.732;2023-03-01T05:29:35;5.68;;;2.40;;
65825;SDS011;52586;-43.152;172.732;2023-03-01T05:32:08;3.92;;;1.88;;
65825;SDS011;52586;-43.152;172.732;2023-03-01T05:34:41;3.05;;;1.30;;
65825;SDS011;52586;-43.152;172.732;2023-03-01T05:37:12;2.40;;;1.17;;
65825;SDS011;52586;-43.152;172.732;2023-03-01T05:39:43;4.10;;;1.15;;
65825;SDS011;52586;-43.152;172.732;2023-03-01T05:42:16;3.35;;;1.15;;
65825;SDS011;52586;-43.152;172.732;2023-03-01T05:44:47;3.58;;;1.05;;
65825;SDS011;52586;-43.152;172.732;2023-03-01T05:47:19;2.50;;;0.93;;
65825;SDS011;52586;-43.152;172.732;2023-03-01T05:49:50;2.30;;;0.75;;
65825;SDS011;52586;-43.152;172.732;2023-03-01T05:52:21;3.70;;;0.73;;
65825;SDS011;52586;-43.152;172.732;2023-03-01T05:54:51;1.25;;;0.60;;
65825;SDS011;52586;-43.152;172.732;2023-03-01T05:57:22;3.60;;;0.98;;
65825;SDS011;52586;-43.152;172.732;2023-03-01T05:59:52;2.85;;;0.65;;
65825;SDS011;52586;-43.152;172.732;2023-03-01T06:02:25;1.95;;;0.70;;
65825;SDS011;52586;-43.152;172.732;2023-03-01T06:04:56;1.85;;;0.60;;
65825;SDS011;52586;-43.152;172.732;2023-03-01T06:07:26;1.85;;;0.70;;
65825;SDS011;52586;-43.152;172.732;2023-03-01T06:09:57;2.17;;;0.47;;
65825;SDS011;52586;-43.152;172.732;2023-03-01T06:12:30;1.17;;;0.60;;
65825;SDS011;52586;-43.152;172.732;2023-03-01T06:15:01;2.83;;;0.80;;
65825;SDS011;52586;-43.152;172.732;2023-03-01T06:17:34;2.05;;;0.50;;
65825;SDS011;52586;-43.152;172.732;2023-03-01T06:20:07;2.35;;;0.50;;
65825;SDS011;52586;-43.152;172.732;2023-03-01T06:22:39;2.58;;;0.93;;
65825;SDS011;52586;-43.152;172.732;2023-03-01T06:25:10;1.17;;;0.50;;
65825;SDS011;52586;-43.152;172.732;2023-03-01T06:27:42;0.80;;;0.60;;
65825;SDS011;52586;-43.152;172.732;2023-03-01T06:30:13;0.70;;;0.50;;
65825;SDS011;52586;-43.152;172.732;2023-03-01T06:32:47;0.73;;;0.52;;
65825;SDS011;52586;-43.152;172.732;2023-03-01T06:35:17;2.33;;;0.75;;
65825;SDS011;52586;-43.152;172.732;2023-03-01T06:37:48;4.60;;;0.70;;
65825;SDS011;52586;-43.152;172.732;2023-03-01T06:40:19;2.10;;;0.70;;
65825;SDS011;52586;-43.152;172.732;2023-03-01T06:42:50;1.10;;;0.60;;
65825;SDS011;52586;-43.152;172.732;2023-03-01T06:45:21;1.40;;;0.55;;
65825;SDS011;52586;-43.152;172.732;2023-03-01T06:47:57;1.95;;;0.57;;
65825;SDS011;52586;-43.152;172.732;2023-03-01T06:50:32;2.58;;;0.82;;
65825;SDS011;52586;-43.152;172.732;2023-03-01T06:53:03;2.08;;;0.77;;
65825;SDS011;52586;-43.152;172.732;2023-03-01T06:55:33;1.40;;;0.63;;
65825;SDS011;52586;-43.152;172.732;2023-03-01T06:58:04;1.58;;;0.50;;
65825;SDS011;52586;-43.152;172.732;2023-03-01T07:00:35;0.60;;;0.50;;
65825;SDS011;52586;-43.152;172.732;2023-03-01T07:03:08;1.40;;;0.70;;
65825;SDS011;52586;-43.152;172.732;2023-03-01T07:05:39;1.58;;;0.60;;
65825;SDS011;52586;-43.152;172.732;2023-03-01T07:08:10;1.13;;;0.50;;
65825;SDS011;52586;-43.152;172.732;2023-03-01T07:10:41;1.27;;;0.80;;
65825;SDS011;52586;-43.152;172.732;2023-03-01T07:13:12;1.23;;;0.60;;
65825;SDS011;52586;-43.152;172.732;2023-03-01T07:15:42;0.57;;;0.40;;
65825;SDS011;52586;-43.152;172.732;2023-03-01T07:18:15;0.75;;;0.50;;
65825;SDS011;52586;-43.152;172.732;2023-03-01T07:20:45;1.13;;;0.60;;
65825;SDS011;52586;-43.152;172.732;2023-03-01T07:23:16;0.75;;;0.50;;
65825;SDS011;52586;-43.152;172.732;2023-03-01T07:25:51;1.17;;;0.70;;
65825;SDS011;52586;-43.152;172.732;2023-03-01T07:28:22;0.77;;;0.47;;
65825;SDS011;52586;-43.152;172.732;2023-03-01T07:30:53;0.88;;;0.50;;
65825;SDS011;52586;-43.152;172.732;2023-03-01T07:33:26;1.40;;;0.55;;
65825;SDS011;52586;-43.152;172.732;2023-03-01T07:35:56;0.88;;;0.50;;
65825;SDS011;52586;-43.152;172.732;2023-03-01T07:38:28;1.10;;;0.63;;
65825;SDS011;52586;-43.152;172.732;2023-03-01T07:40:59;1.17;;;0.65;;
65825;SDS011;52586;-43.152;172.732;2023-03-01T07:43:30;1.15;;;0.50;;
65825;SDS011;52586;-43.152;172.732;2023-03-01T07:46:01;1.25;;;0.68;;
65825;SDS011;52586;-43.152;172.732;2023-03-01T07:48:34;1.40;;;0.70;;
65825;SDS011;52586;-43.152;172.732;2023-03-01T07:51:05;1.50;;;0.50;;
65825;SDS011;52586;-43.152;172.732;2023-03-01T07:53:36;1.05;;;0.60;;
65825;SDS011;52586;-43.152;172.732;2023-03-01T07:56:09;1.63;;;0.77;;
65825;SDS011;52586;-43.152;172.732;2023-03-01T07:58:40;1.20;;;0.52;;
65825;SDS011;52586;-43.152;172.732;2023-03-01T08:01:12;2.40;;;1.00;;
65825;SDS011;52586;-43.152;172.732;2023-03-01T08:03:45;1.73;;;0.65;;
65825;SDS011;52586;-43.152;172.732;2023-03-01T08:06:16;1.95;;;0.55;;
65825;SDS011;52586;-43.152;172.732;2023-03-01T08:08:47;1.98;;;0.60;;
65825;SDS011;52586;-43.152;172.732;2023-03-01T08:11:18;0.50;;;0.45;;
65825;SDS011;52586;-43.152;172.732;2023-03-01T08:13:49;0.98;;;0.55;;
65825;SDS011;52586;-43.152;172.732;2023-03-01T08:16:19;0.80;;;0.50;;
65825;SDS011;52586;-43.152;172.732;2023-03-01T08:18:52;0.60;;;0.50;;
65825;SDS011;52586;-43.152;172.732;2023-03-01T08:21:26;1.10;;;0.60;;
65825;SDS011;52586;-43.152;172.732;2023-03-01T08:23:57;1.75;;;0.50;;
65825;SDS011;52586;-43.152;172.732;2023-03-01T08:26:28;2.05;;;0.50;;
65825;SDS011;52586;-43.152;172.732;2023-03-01T08:28:59;0.85;;;0.50;;
65825;SDS011;52586;-43.152;172.732;2023-03-01T08:31:30;0.57;;;0.57;;
65825;SDS011;52586;-43.152;172.732;2023-03-01T08:34:05;1.35;;;0.63;;
65825;SDS011;52586;-43.152;172.732;2023-03-01T08:36:38;0.90;;;0.50;;
65825;SDS011;52586;-43.152;172.732;2023-03-01T08:39:10;1.30;;;0.70;;
65825;SDS011;52586;-43.152;172.732;2023-03-01T08:41:41;0.90;;;0.50;;
65825;SDS011;52586;-43.152;172.732;2023-03-01T08:44:12;1.30;;;0.50;;
65825;SDS011;52586;-43.152;172.732;2023-03-01T08:46:44;0.80;;;0.40;;
65825;SDS011;52586;-43.152;172.732;2023-03-01T08:49:18;0.93;;;0.60;;
65825;SDS011;52586;-43.152;172.732;2023-03-01T08:51:49;0.90;;;0.50;;
65825;SDS011;52586;-43.152;172.732;2023-03-01T08:54:21;0.50;;;0.50;;
65825;SDS011;52586;-43.152;172.732;2023-03-01T08:56:51;0.90;;;0.70;;
65825;SDS011;52586;-43.152;172.732;2023-03-01T08:59:22;0.80;;;0.60;;
65825;SDS011;52586;-43.152;172.732;2023-03-01T09:01:55;0.82;;;0.70;;
65825;SDS011;52586;-43.152;172.732;2023-03-01T09:04:28;0.60;;;0.50;;
65825;SDS011;52586;-43.152;172.732;2023-03-01T09:06:59;0.95;;;0.75;;
65825;SDS011;52586;-43.152;172.732;2023-03-01T09:09:30;1.92;;;0.80;;
65825;SDS011;52586;-43.152;172.732;2023-03-01T09:12:00;0.60;;;0.60;;
65825;SDS011;52586;-43.152;172.732;2023-03-01T09:14:31;0.88;;;0.60;;
65825;SDS011;52586;-43.152;172.732;2023-03-01T09:17:03;1.00;;;0.50;;
65825;SDS011;52586;-43.152;172.732;2023-03-01T09:19:35;0.50;;;0.50;;
65825;SDS011;52586;-43.152;172.732;2023-03-01T09:22:06;0.50;;;0.47;;
65825;SDS011;52586;-43.152;172.732;2023-03-01T09:24:37;0.40;;;0.40;;
65825;SDS011;52586;-43.152;172.732;2023-03-01T09:27:08;0.73;;;0.50;;
65825;SDS011;52586;-43.152;172.732;2023-03-01T09:29:40;0.88;;;0.47;;
65825;SDS011;52586;-43.152;172.732;2023-03-01T09:32:10;2.28;;;0.70;;
65825;SDS011;52586;-43.152;172.732;2023-03-01T09:34:43;0.50;;;0.50;;
65825;SDS011;52586;-43.152;172.732;2023-03-01T09:37:26;0.50;;;0.40;;
65825;SDS011;52586;-43.152;172.732;2023-03-01T09:39:57;0.43;;;0.32;;
65825;SDS011;52586;-43.152;172.732;2023-03-01T09:42:28;1.13;;;0.65;;
65825;SDS011;52586;-43.152;172.732;2023-03-01T09:45:01;0.80;;;0.50;;
65825;SDS011;52586;-43.152;172.732;2023-03-01T09:47:33;1.05;;;0.50;;
65825;SDS011;52586;-43.152;172.732;2023-03-01T09:50:11;0.60;;;0.40;;
65825;SDS011;52586;-43.152;172.732;2023-03-01T09:52:43;0.85;;;0.52;;
65825;SDS011;52586;-43.152;172.732;2023-03-01T09:55:20;0.70;;;0.47;;
65825;SDS011;52586;-43.152;172.732;2023-03-01T09:57:59;0.80;;;0.57;;
65825;SDS011;52586;-43.152;172.732;2023-03-01T10:00:37;0.70;;;0.50;;
65825;SDS011;52586;-43.152;172.732;2023-03-01T10:03:13;0.43;;;0.43;;
65825;SDS011;52586;-43.152;172.732;2023-03-01T10:05:59;0.50;;;0.45;;
65825;SDS011;52586;-43.152;172.732;2023-03-01T10:08:38;0.88;;;0.50;;
65825;SDS011;52586;-43.152;172.732;2023-03-01T10:11:16;0.40;;;0.40;;
65825;SDS011;52586;-43.152;172.732;2023-03-01T10:13:52;0.65;;;0.40;;
65825;SDS011;52586;-43.152;172.732;2023-03-01T10:16:28;1.00;;;0.45;;
65825;SDS011;52586;-43.152;172.732;2023-03-01T10:19:09;0.60;;;0.50;;
65825;SDS011;52586;-43.152;172.732;2023-03-01T10:21:47;0.73;;;0.50;;
65825;SDS011;52586;-43.152;172.732;2023-03-01T10:24:19;0.90;;;0.57;;
65825;SDS011;52586;-43.152;172.732;2023-03-01T10:26:54;2.05;;;0.60;;
65825;SDS011;52586;-43.152;172.732;2023-03-01T10:29:26;0.50;;;0.50;;
65825;SDS011;52586;-43.152;172.732;2023-03-01T10:32:03;0.63;;;0.40;;
65825;SDS011;52586;-43.152;172.732;2023-03-01T10:34:34;0.70;;;0.50;;
65825;SDS011;52586;-43.152;172.732;2023-03-01T10:37:11;0.98;;;0.50;;
65825;SDS011;52586;-43.152;172.732;2023-03-01T10:40:01;0.68;;;0.40;;
65825;SDS011;52586;-43.152;172.732;2023-03-01T10:42:35;1.00;;;0.50;;
65825;SDS011;52586;-43.152;172.732;2023-03-01T10:48:08;0.40;;;0.40;;
65825;SDS011;52586;-43.152;172.732;2023-03-01T10:50:42;0.90;;;0.40;;
65825;SDS011;52586;-43.152;172.732;2023-03-01T10:53:21;0.40;;;0.30;;
65825;SDS011;52586;-43.152;172.732;2023-03-01T10:56:01;0.43;;;0.40;;
65825;SDS011;52586;-43.152;172.732;2023-03-01T10:58:34;0.70;;;0.60;;
65825;SDS011;52586;-43.152;172.732;2023-03-01T11:01:06;0.70;;;0.60;;
65825;SDS011;52586;-43.152;172.732;2023-03-01T11:04:09;0.28;;;0.28;;
65825;SDS011;52586;-43.152;172.732;2023-03-01T11:06:41;0.50;;;0.40;;
65825;SDS011;52586;-43.152;172.732;2023-03-01T11:09:18;0.40;;;0.40;;
65825;SDS011;52586;-43.152;172.732;2023-03-01T11:11:52;1.25;;;0.52;;
65825;SDS011;52586;-43.152;172.732;2023-03-01T11:14:24;1.35;;;0.47;;
65825;SDS011;52586;-43.152;172.732;2023-03-01T11:16:58;0.50;;;0.50;;
65825;SDS011;52586;-43.152;172.732;2023-03-01T11:19:31;0.47;;;0.47;;
65825;SDS011;52586;-43.152;172.732;2023-03-01T11:22:02;0.95;;;0.50;;
65825;SDS011;52586;-43.152;172.732;2023-03-01T11:24:41;0.50;;;0.47;;
65825;SDS011;52586;-43.152;172.732;2023-03-01T11:27:16;0.88;;;0.57;;
65825;SDS011;52586;-43.152;172.732;2023-03-01T11:29:50;0.47;;;0.45;;
65825;SDS011;52586;-43.152;172.732;2023-03-01T11:32:25;0.68;;;0.68;;
65825;SDS011;52586;-43.152;172.732;2023-03-01T11:35:01;0.32;;;0.32;;
65825;SDS011;52586;-43.152;172.732;2023-03-01T11:37:38;0.88;;;0.50;;
65825;SDS011;52586;-43.152;172.732;2023-03-01T11:40:16;1.20;;;0.50;;
65825;SDS011;52586;-43.152;172.732;2023-03-01T11:43:01;0.40;;;0.40;;
65825;SDS011;52586;-43.152;172.732;2023-03-01T11:45:42;1.67;;;0.50;;
65825;SDS011;52586;-43.152;172.732;2023-03-01T11:51:19;0.47;;;0.47;;
65825;SDS011;52586;-43.152;172.732;2023-03-01T11:54:00;0.30;;;0.30;;
65825;SDS011;52586;-43.152;172.732;2023-03-01T11:56:45;0.50;;;0.50;;
65825;SDS011;52586;-43.152;172.732;2023-03-01T11:59:32;0.60;;;0.40;;
65825;SDS011;52586;-43.152;172.732;2023-03-01T12:02:25;0.60;;;0.50;;
65825;SDS011;52586;-43.152;172.732;2023-03-01T12:08:17;0.30;;;0.30;;
65825;SDS011;52586;-43.152;172.732;2023-03-01T12:10:55;0.50;;;0.50;;
65825;SDS011;52586;-43.152;172.732;2023-03-01T12:13:59;0.52;;;0.40;;
65825;SDS011;52586;-43.152;172.732;2023-03-01T12:19:55;0.50;;;0.32;;
65825;SDS011;52586;-43.152;172.732;2023-03-01T12:22:43;0.32;;;0.32;;
65825;SDS011;52586;-43.152;172.732;2023-03-01T12:25:25;0.75;;;0.40;;
65825;SDS011;52586;-43.152;172.732;2023-03-01T12:28:08;0.40;;;0.38;;
65825;SDS011;52586;-43.152;172.732;2023-03-01T12:31:05;0.35;;;0.28;;
65825;SDS011;52586;-43.152;172.732;2023-03-01T12:33:56;0.52;;;0.50;;
65825;SDS011;52586;-43.152;172.732;2023-03-01T12:36:51;0.73;;;0.50;;
65825;SDS011;52586;-43.152;172.732;2023-03-01T12:39:50;0.30;;;0.30;;
65825;SDS011;52586;-43.152;172.732;2023-03-01T12:42:32;0.55;;;0.47;;
65825;SDS011;52586;-43.152;172.732;2023-03-01T12:45:27;0.70;;;0.50;;
65825;SDS011;52586;-43.152;172.732;2023-03-01T12:48:26;0.98;;;0.63;;
65825;SDS011;52586;-43.152;172.732;2023-03-01T12:51:07;0.40;;;0.40;;
65825;SDS011;52586;-43.152;172.732;2023-03-01T12:53:43;0.88;;;0.40;;
65825;SDS011;52586;-43.152;172.732;2023-03-01T12:56:17;0.35;;;0.35;;
65825;SDS011;52586;-43.152;172.732;2023-03-01T12:58:53;0.40;;;0.40;;
65825;SDS011;52586;-43.152;172.732;2023-03-01T13:01:39;1.05;;;0.43;;
65825;SDS011;52586;-43.152;172.732;2023-03-01T13:04:18;0.40;;;0.40;;
65825;SDS011;52586;-43.152;172.732;2023-03-01T13:07:02;0.50;;;0.50;;
65825;SDS011;52586;-43.152;172.732;2023-03-01T13:09:43;0.50;;;0.50;;
65825;SDS011;52586;-43.152;172.732;2023-03-01T13:15:30;1.00;;;0.40;;
65825;SDS011;52586;-43.152;172.732;2023-03-01T13:18:03;0.50;;;0.50;;
65825;SDS011;52586;-43.152;172.732;2023-03-01T13:20:58;0.50;;;0.50;;
65825;SDS011;52586;-43.152;172.732;2023-03-01T13:23:35;0.40;;;0.30;;
65825;SDS011;52586;-43.152;172.732;2023-03-01T13:26:11;0.75;;;0.45;;
65825;SDS011;52586;-43.152;172.732;2023-03-01T13:28:50;0.40;;;0.40;;
65825;SDS011;52586;-43.152;172.732;2023-03-01T13:34:39;0.47;;;0.47;;
65825;SDS011;52586;-43.152;172.732;2023-03-01T13:37:23;0.47;;;0.40;;
65825;SDS011;52586;-43.152;172.732;2023-03-01T13:40:05;0.50;;;0.40;;
65825;SDS011;52586;-43.152;172.732;2023-03-01T13:46:11;0.40;;;0.40;;
65825;SDS011;52586;-43.152;172.732;2023-03-01T13:48:47;0.32;;;0.32;;
65825;SDS011;52586;-43.152;172.732;2023-03-01T13:51:21;0.50;;;0.40;;
65825;SDS011;52586;-43.152;172.732;2023-03-01T13:53:56;0.40;;;0.40;;
65825;SDS011;52586;-43.152;172.732;2023-03-01T13:56:33;0.43;;;0.40;;
65825;SDS011;52586;-43.152;172.732;2023-03-01T13:59:06;0.40;;;0.40;;
65825;SDS011;52586;-43.152;172.732;2023-03-01T14:01:43;0.30;;;0.30;;
65825;SDS011;52586;-43.152;172.732;2023-03-01T14:04:20;1.20;;;0.40;;
65825;SDS011;52586;-43.152;172.732;2023-03-01T14:06:53;0.30;;;0.30;;
65825;SDS011;52586;-43.152;172.732;2023-03-01T14:09:43;0.35;;;0.35;;
65825;SDS011;52586;-43.152;172.732;2023-03-01T14:12:19;0.50;;;0.45;;
65825;SDS011;52586;-43.152;172.732;2023-03-01T14:15:00;0.20;;;0.20;;
65825;SDS011;52586;-43.152;172.732;2023-03-01T14:17:46;0.40;;;0.40;;
65825;SDS011;52586;-43.152;172.732;2023-03-01T14:20:24;0.20;;;0.20;;
65825;SDS011;52586;-43.152;172.732;2023-03-01T14:22:57;0.38;;;0.38;;
65825;SDS011;52586;-43.152;172.732;2023-03-01T14:25:32;0.35;;;0.30;;
65825;SDS011;52586;-43.152;172.732;2023-03-01T14:28:04;0.40;;;0.40;;
65825;SDS011;52586;-43.152;172.732;2023-03-01T14:30:45;0.47;;;0.40;;
65825;SDS011;52586;-43.152;172.732;2023-03-01T14:33:21;0.60;;;0.32;;
65825;SDS011;52586;-43.152;172.732;2023-03-01T14:35:54;0.68;;;0.30;;
65825;SDS011;52586;-43.152;172.732;2023-03-01T14:38:29;0.40;;;0.40;;
65825;SDS011;52586;-43.152;172.732;2023-03-01T14:41:05;0.55;;;0.40;;
65825;SDS011;52586;-43.152;172.732;2023-03-01T14:43:38;0.38;;;0.38;;
65825;SDS011;52586;-43.152;172.732;2023-03-01T14:46:17;0.50;;;0.40;;
65825;SDS011;52586;-43.152;172.732;2023-03-01T14:48:50;0.40;;;0.30;;
65825;SDS011;52586;-43.152;172.732;2023-03-01T14:51:22;0.40;;;0.40;;
65825;SDS011;52586;-43.152;172.732;2023-03-01T14:53:53;0.40;;;0.40;;
65825;SDS011;52586;-43.152;172.732;2023-03-01T14:56:26;0.30;;;0.30;;
65825;SDS011;52586;-43.152;172.732;2023-03-01T14:59:11;0.40;;;0.40;;
65825;SDS011;52586;-43.152;172.732;2023-03-01T15:01:42;0.30;;;0.30;;
65825;SDS011;52586;-43.152;172.732;2023-03-01T15:04:13;0.98;;;0.40;;
65825;SDS011;52586;-43.152;172.732;2023-03-01T15:06:44;0.43;;;0.40;;
65825;SDS011;52586;-43.152;172.732;2023-03-01T15:09:16;0.40;;;0.40;;
65825;SDS011;52586;-43.152;172.732;2023-03-01T15:11:49;0.57;;;0.40;;